Time,TemperatureF,DewpointF,PressureIn,WindDirection,WindDirectionDegrees,WindSpeedMPH,WindSpeedGustMPH,Humidity,HourlyPrecipIn,Conditions,Clouds,dailyrainin,SoftwareType,DateUTC
2013-03-23 00:04:00,46.0,38.2,29.81,WSW,250,0.0,0.0,74,0.00,,,0.00,Wunderground v.1.15,2013-03-23 07:04:00,
2013-03-23 00:09:00,45.9,37.7,29.81,WSW,250,0.0,0.0,73,0.00,,,0.00,Wunderground v.1.15,2013-03-23 07:09:00,
2013-03-23 00:14:00,45.7,37.2,29.80,WSW,250,0.0,0.0,72,0.00,,,0.00,Wunderground v.1.15,2013-03-23 07:14:00,
2013-03-23 00:19:00,45.6,36.7,29.80,WSW,250,0.0,0.0,71,0.00,,,0.00,Wunderground v.1.15,2013-03-23 07:19:00,
2013-03-23 00:24:00,45.7,36.5,29.80,WSW,251,0.0,0.0,70,0.00,,,0.00,Wunderground v.1.15,2013-03-23 07:24:00,
2013-03-23 00:29:00,45.6,36.4,29.80,WSW,250,0.0,0.0,70,0.00,,,0.00,Wunderground v.1.15,2013-03-23 07:29:00,
2013-03-23 00:34:00,45.5,34.4,29.80,WSW,250,0.0,0.0,65,0.00,,,0.00,Wunderground v.1.15,2013-03-23 07:34:00,
2013-03-23 00:40:00,45.6,34.5,29.80,WSW,250,0.0,0.0,65,0.00,,,0.00,Wunderground v.1.15,2013-03-23 07:40:00,
2013-03-23 00:45:00,45.7,33.8,29.80,WSW,250,0.0,0.0,63,0.00,,,0.00,Wunderground v.1.15,2013-03-23 07:45:00,
2013-03-23 00:50:00,45.9,33.6,29.80,WSW,251,0.0,0.0,62,0.00,,,0.00,Wunderground v.1.15,2013-03-23 07:50:00,
2013-03-23 00:55:00,46.0,32.5,29.80,WSW,251,0.0,0.0,59,0.00,,,0.00,Wunderground v.1.15,2013-03-23 07:55:00,
2013-03-23 01:01:00,45.9,32.4,29.81,WSW,251,0.0,0.0,59,0.00,,,0.00,Wunderground v.1.15,2013-03-23 08:01:00,
2013-03-23 01:06:00,45.8,32.7,29.81,WSW,251,0.0,0.0,60,0.00,,,0.00,Wunderground v.1.15,2013-03-23 08:06:00,
2013-03-23 01:11:00,45.7,32.2,29.81,WSW,250,0.0,0.0,59,0.00,,,0.00,Wunderground v.1.15,2013-03-23 08:11:00,
2013-03-23 01:16:00,45.6,32.1,29.81,WSW,251,0.0,0.0,59,0.00,,,0.00,Wunderground v.1.15,2013-03-23 08:16:00,
2013-03-23 01:21:00,45.4,32.3,29.81,WSW,250,0.0,0.0,60,0.00,,,0.00,Wunderground v.1.15,2013-03-23 08:21:00,
2013-03-23 01:26:00,45.2,32.9,29.81,WSW,251,0.0,0.0,62,0.00,,,0.00,Wunderground v.1.15,2013-03-23 08:26:00,
2013-03-23 01:31:00,45.0,33.2,29.81,WSW,251,0.0,0.0,63,0.00,,,0.00,Wunderground v.1.15,2013-03-23 08:31:00,
2013-03-23 01:36:00,44.7,33.3,29.81,WSW,250,0.0,0.0,64,0.00,,,0.00,Wunderground v.1.15,2013-03-23 08:36:00,
2013-03-23 01:41:00,44.5,32.7,29.81,WSW,251,0.0,0.0,63,0.00,,,0.00,Wunderground v.1.15,2013-03-23 08:41:00,
2013-03-23 01:48:00,44.3,32.5,29.82,WSW,251,0.0,0.0,63,0.00,,,0.00,Wunderground v.1.15,2013-03-23 08:48:00,
2013-03-23 01:53:00,44.1,32.3,29.81,WSW,250,0.0,0.0,63,0.00,,,0.00,Wunderground v.1.15,2013-03-23 08:53:00,
2013-03-23 01:58:00,44.0,31.8,29.81,WSW,251,0.0,0.0,62,0.00,,,0.00,Wunderground v.1.15,2013-03-23 08:58:00,
2013-03-23 02:03:00,44.0,31.4,29.81,WSW,250,0.0,0.0,61,0.00,,,0.00,Wunderground v.1.15,2013-03-23 09:03:00,
2013-03-23 02:08:00,44.0,31.4,29.81,WSW,251,0.0,0.0,61,0.00,,,0.00,Wunderground v.1.15,2013-03-23 09:08:00,
2013-03-23 02:13:00,43.8,31.6,29.81,WSW,250,0.0,0.0,62,0.00,,,0.00,Wunderground v.1.15,2013-03-23 09:13:00,
2013-03-23 02:18:00,43.6,31.0,29.81,WSW,250,0.0,0.0,61,0.00,,,0.00,Wunderground v.1.15,2013-03-23 09:18:00,
2013-03-23 02:23:00,43.6,32.2,29.81,WSW,251,0.0,0.0,64,0.00,,,0.00,Wunderground v.1.15,2013-03-23 09:23:00,
2013-03-23 02:29:00,43.5,31.7,29.81,WSW,250,0.0,0.0,63,0.00,,,0.00,Wunderground v.1.15,2013-03-23 09:29:00,
2013-03-23 02:34:00,43.4,32.4,29.82,WSW,251,0.0,0.0,65,0.00,,,0.00,Wunderground v.1.15,2013-03-23 09:34:00,
2013-03-23 02:39:00,43.1,32.1,29.81,WSW,251,0.0,0.0,65,0.00,,,0.00,Wunderground v.1.15,2013-03-23 09:39:00,
2013-03-23 02:45:00,42.9,32.3,29.81,WSW,251,0.0,0.0,66,0.00,,,0.00,Wunderground v.1.15,2013-03-23 09:45:00,
2013-03-23 02:50:00,42.7,32.5,29.81,WSW,251,0.0,0.0,67,0.00,,,0.00,Wunderground v.1.15,2013-03-23 09:50:00,
2013-03-23 02:55:00,42.4,32.6,29.81,WSW,250,0.0,0.0,68,0.00,,,0.00,Wunderground v.1.15,2013-03-23 09:55:00,
2013-03-23 03:00:00,42.3,32.1,29.81,WSW,251,0.0,0.0,67,0.00,,,0.00,Wunderground v.1.15,2013-03-23 10:00:00,
2013-03-23 03:05:00,42.3,32.5,29.81,WSW,251,0.0,0.0,68,0.00,,,0.00,Wunderground v.1.15,2013-03-23 10:05:00,
2013-03-23 03:10:00,42.1,32.3,29.81,WSW,250,0.0,0.0,68,0.00,,,0.00,Wunderground v.1.15,2013-03-23 10:10:00,
2013-03-23 03:15:00,42.0,31.8,29.81,WSW,251,0.0,0.0,67,0.00,,,0.00,Wunderground v.1.15,2013-03-23 10:15:00,
2013-03-23 03:21:00,42.0,32.2,29.80,WSW,251,0.0,0.0,68,0.00,,,0.00,Wunderground v.1.15,2013-03-23 10:21:00,
2013-03-23 03:26:00,41.9,32.1,29.80,WSW,250,0.0,0.0,68,0.00,,,0.00,Wunderground v.1.15,2013-03-23 10:26:00,
2013-03-23 03:32:00,41.7,32.3,29.80,WSW,251,0.0,0.0,69,0.00,,,0.00,Wunderground v.1.15,2013-03-23 10:32:00,
2013-03-23 03:37:00,41.6,32.2,29.81,WSW,251,0.0,0.0,69,0.00,,,0.00,Wunderground v.1.15,2013-03-23 10:37:00,
2013-03-23 03:42:00,41.4,32.3,29.81,WSW,250,0.0,0.0,70,0.00,,,0.00,Wunderground v.1.15,2013-03-23 10:42:00,
2013-03-23 03:48:00,41.1,32.4,29.81,WSW,251,0.0,0.0,71,0.00,,,0.00,Wunderground v.1.15,2013-03-23 10:48:00,
2013-03-23 03:54:00,40.9,32.2,29.81,WSW,250,0.0,0.0,71,0.00,,,0.00,Wunderground v.1.15,2013-03-23 10:54:00,
2013-03-23 03:59:00,40.8,32.1,29.81,WSW,250,0.0,0.0,71,0.00,,,0.00,Wunderground v.1.15,2013-03-23 10:59:00,
2013-03-23 04:04:00,40.7,32.4,29.81,WSW,251,0.0,0.0,72,0.00,,,0.00,Wunderground v.1.15,2013-03-23 11:04:00,
2013-03-23 04:09:00,40.5,32.5,29.81,WSW,251,0.0,0.0,73,0.00,,,0.00,Wunderground v.1.15,2013-03-23 11:09:00,
2013-03-23 04:15:00,40.4,32.4,29.81,WSW,250,0.0,0.0,73,0.00,,,0.00,Wunderground v.1.15,2013-03-23 11:15:00,
2013-03-23 04:20:00,40.2,32.2,29.81,WSW,251,0.0,0.0,73,0.00,,,0.00,Wunderground v.1.15,2013-03-23 11:20:00,
2013-03-23 04:25:00,40.1,32.5,29.81,WSW,251,0.0,0.0,74,0.00,,,0.00,Wunderground v.1.15,2013-03-23 11:25:00,
2013-03-23 04:30:00,39.8,32.2,29.81,WSW,250,0.0,0.0,74,0.00,,,0.00,Wunderground v.1.15,2013-03-23 11:30:00,
2013-03-23 04:35:00,39.7,32.1,29.81,WSW,251,0.0,0.0,74,0.00,,,0.00,Wunderground v.1.15,2013-03-23 11:35:00,
2013-03-23 04:40:00,39.7,32.1,29.81,WSW,250,0.0,0.0,74,0.00,,,0.00,Wunderground v.1.15,2013-03-23 11:40:00,
2013-03-23 04:46:00,39.7,31.8,29.81,WSW,250,0.0,0.0,73,0.00,,,0.00,Wunderground v.1.15,2013-03-23 11:46:00,
2013-03-23 04:51:00,39.5,31.6,29.81,WSW,251,0.0,0.0,73,0.00,,,0.00,Wunderground v.1.15,2013-03-23 11:51:00,
2013-03-23 04:56:00,39.3,31.7,29.82,WSW,251,0.0,0.0,74,0.00,,,0.00,Wunderground v.1.15,2013-03-23 11:56:00,
2013-03-23 05:01:00,39.1,31.8,29.82,WSW,250,0.0,0.0,75,0.00,,,0.00,Wunderground v.1.15,2013-03-23 12:01:00,
2013-03-23 05:07:00,39.1,31.8,29.82,WSW,251,0.0,0.0,75,0.00,,,0.00,Wunderground v.1.15,2013-03-23 12:07:00,
2013-03-23 05:13:00,39.1,31.8,29.82,WSW,250,0.0,1.0,75,0.00,,,0.00,Wunderground v.1.15,2013-03-23 12:13:00,
2013-03-23 05:18:00,39.1,31.8,29.82,WSW,250,0.0,1.0,75,0.00,,,0.00,Wunderground v.1.15,2013-03-23 12:18:00,
2013-03-23 05:23:00,39.0,31.7,29.82,WSW,251,0.0,0.0,75,0.00,,,0.00,Wunderground v.1.15,2013-03-23 12:23:00,
2013-03-23 05:29:00,38.8,31.2,29.82,WSW,250,0.0,0.0,74,0.00,,,0.00,Wunderground v.1.15,2013-03-23 12:29:00,
2013-03-23 05:35:00,38.6,30.7,29.83,WSW,251,0.0,0.0,73,0.00,,,0.00,Wunderground v.1.15,2013-03-23 12:35:00,
2013-03-23 05:40:00,38.7,31.5,29.83,WSW,250,0.0,0.0,75,0.00,,,0.00,Wunderground v.1.15,2013-03-23 12:40:00,
2013-03-23 05:45:00,38.9,32.0,29.83,WSW,251,0.0,0.0,76,0.00,,,0.00,Wunderground v.1.15,2013-03-23 12:45:00,
2013-03-23 05:50:00,38.9,31.3,29.83,WSW,250,0.0,0.0,74,0.00,,,0.00,Wunderground v.1.15,2013-03-23 12:50:00,
2013-03-23 05:55:00,39.0,31.7,29.83,WSW,250,0.0,0.0,75,0.00,,,0.00,Wunderground v.1.15,2013-03-23 12:55:00,
2013-03-23 06:01:00,38.8,31.2,29.83,WSW,251,0.0,0.0,74,0.00,,,0.00,Wunderground v.1.15,2013-03-23 13:01:00,
2013-03-23 06:06:00,38.6,31.0,29.84,WSW,251,0.0,0.0,74,0.00,,,0.00,Wunderground v.1.15,2013-03-23 13:06:00,
2013-03-23 06:11:00,38.4,31.5,29.84,WSW,251,0.0,0.0,76,0.00,,,0.00,Wunderground v.1.15,2013-03-23 13:11:00,
2013-03-23 06:16:00,38.2,31.9,29.84,WSW,251,0.0,0.0,78,0.00,,,0.00,Wunderground v.1.15,2013-03-23 13:16:00,
2013-03-23 06:23:00,38.2,31.6,29.84,WSW,251,0.0,0.0,77,0.00,,,0.00,Wunderground v.1.15,2013-03-23 13:23:00,
2013-03-23 06:28:00,38.1,31.5,29.84,WSW,251,0.0,0.0,77,0.00,,,0.00,Wunderground v.1.15,2013-03-23 13:28:00,
2013-03-23 06:33:00,38.2,31.6,29.84,WSW,251,0.0,0.0,77,0.00,,,0.00,Wunderground v.1.15,2013-03-23 13:33:00,
2013-03-23 06:39:00,38.4,31.8,29.85,WSW,250,0.0,0.0,77,0.00,,,0.00,Wunderground v.1.15,2013-03-23 13:39:00,
2013-03-23 06:44:00,38.4,31.8,29.85,WSW,251,0.0,0.0,77,0.00,,,0.00,Wunderground v.1.15,2013-03-23 13:44:00,
2013-03-23 06:49:00,38.3,31.4,29.85,WSW,251,0.0,0.0,76,0.00,,,0.00,Wunderground v.1.15,2013-03-23 13:49:00,
2013-03-23 06:55:00,38.3,31.4,29.85,WSW,251,0.0,0.0,76,0.00,,,0.00,Wunderground v.1.15,2013-03-23 13:55:00,
2013-03-23 07:00:00,38.4,31.8,29.85,WSW,251,0.0,0.0,77,0.00,,,0.00,Wunderground v.1.15,2013-03-23 14:00:00,
2013-03-23 07:05:00,38.4,31.5,29.86,WSW,250,0.0,0.0,76,0.00,,,0.00,Wunderground v.1.15,2013-03-23 14:05:00,
2013-03-23 07:10:00,38.5,31.9,29.86,WSW,250,0.0,0.0,77,0.00,,,0.00,Wunderground v.1.15,2013-03-23 14:10:00,
2013-03-23 07:15:00,38.6,31.7,29.86,WSW,251,0.0,0.0,76,0.00,,,0.00,Wunderground v.1.15,2013-03-23 14:15:00,
2013-03-23 07:21:00,38.8,31.9,29.86,WSW,251,0.0,0.0,76,0.00,,,0.00,Wunderground v.1.15,2013-03-23 14:21:00,
2013-03-23 07:26:00,39.0,32.1,29.87,WSW,251,0.0,0.0,76,0.00,,,0.00,Wunderground v.1.15,2013-03-23 14:26:00,
2013-03-23 07:31:00,39.1,32.2,29.87,WSW,250,0.0,0.0,76,0.00,,,0.00,Wunderground v.1.15,2013-03-23 14:31:00,
2013-03-23 07:37:00,39.3,32.7,29.87,WSW,251,0.0,0.0,77,0.00,,,0.00,Wunderground v.1.15,2013-03-23 14:37:00,
2013-03-23 07:43:00,39.8,33.2,29.87,WSW,250,0.0,0.0,77,0.00,,,0.00,Wunderground v.1.15,2013-03-23 14:43:00,
2013-03-23 07:48:00,40.1,33.8,29.87,WSW,251,0.0,0.0,78,0.00,,,0.00,Wunderground v.1.15,2013-03-23 14:48:00,
2013-03-23 07:53:00,40.6,34.6,29.87,WSW,251,0.0,0.0,79,0.00,,,0.00,Wunderground v.1.15,2013-03-23 14:53:00,
2013-03-23 07:58:00,40.9,34.2,29.87,WSW,250,0.0,0.0,77,0.00,,,0.00,Wunderground v.1.15,2013-03-23 14:58:00,
2013-03-23 08:03:00,41.3,35.0,29.87,WSW,251,0.0,0.0,78,0.00,,,0.00,Wunderground v.1.15,2013-03-23 15:03:00,
2013-03-23 08:09:00,42.0,35.6,29.87,WSW,250,0.0,0.0,78,0.00,,,0.00,Wunderground v.1.15,2013-03-23 15:09:00,
2013-03-23 08:14:00,42.6,36.2,29.87,WSW,251,0.0,0.0,78,0.00,,,0.00,Wunderground v.1.15,2013-03-23 15:14:00,
2013-03-23 08:20:00,43.3,36.6,29.88,WSW,251,0.0,0.0,77,0.00,,,0.00,Wunderground v.1.15,2013-03-23 15:20:00,
2013-03-23 08:25:00,44.5,37.1,29.88,WSW,251,0.0,0.0,75,0.00,,,0.00,Wunderground v.1.15,2013-03-23 15:25:00,
2013-03-23 08:30:00,45.9,37.7,29.88,WSW,251,0.0,0.0,73,0.00,,,0.00,Wunderground v.1.15,2013-03-23 15:30:00,
2013-03-23 08:36:00,47.1,38.5,29.88,WSW,250,0.0,0.0,72,0.00,,,0.00,Wunderground v.1.15,2013-03-23 15:36:00,
2013-03-23 08:41:00,48.1,37.7,29.89,WSW,251,0.0,0.0,67,0.00,,,0.00,Wunderground v.1.15,2013-03-23 15:41:00,
2013-03-23 08:46:00,49.4,36.9,29.89,WSW,251,0.0,0.0,62,0.00,,,0.00,Wunderground v.1.15,2013-03-23 15:46:00,
2013-03-23 08:51:00,50.9,37.1,29.89,WSW,251,0.0,0.0,59,0.00,,,0.00,Wunderground v.1.15,2013-03-23 15:51:00,
2013-03-23 08:56:00,52.6,39.5,29.89,WSW,250,0.0,0.0,61,0.00,,,0.00,Wunderground v.1.15,2013-03-23 15:56:00,
2013-03-23 09:02:00,53.3,40.2,29.89,WSW,251,0.0,0.0,61,0.00,,,0.00,Wunderground v.1.15,2013-03-23 16:02:00,
2013-03-23 09:07:00,54.0,40.8,29.89,WSW,251,0.0,0.0,61,0.00,,,0.00,Wunderground v.1.15,2013-03-23 16:07:00,
2013-03-23 09:12:00,54.7,40.6,29.90,WSW,251,0.0,1.0,59,0.00,,,0.00,Wunderground v.1.15,2013-03-23 16:12:00,
2013-03-23 09:17:00,55.3,40.3,29.90,WSW,250,0.0,1.0,57,0.00,,,0.00,Wunderground v.1.15,2013-03-23 16:17:00,
2013-03-23 09:22:00,55.6,40.1,29.90,WSW,251,0.0,0.0,56,0.00,,,0.00,Wunderground v.1.15,2013-03-23 16:22:00,
2013-03-23 09:28:00,56.2,40.7,29.89,WSW,251,0.0,0.0,56,0.00,,,0.00,Wunderground v.1.15,2013-03-23 16:28:00,
2013-03-23 09:33:00,56.8,39.8,29.89,WSW,251,0.0,0.0,53,0.00,,,0.00,Wunderground v.1.15,2013-03-23 16:33:00,
2013-03-23 09:38:00,57.4,39.4,29.88,WSW,251,0.0,1.0,51,0.00,,,0.00,Wunderground v.1.15,2013-03-23 16:38:00,
2013-03-23 09:44:00,58.4,39.8,29.89,WSW,251,0.0,0.0,50,0.00,,,0.00,Wunderground v.1.15,2013-03-23 16:44:00,
2013-03-23 09:49:00,59.4,38.6,29.89,WSW,250,0.0,0.0,46,0.00,,,0.00,Wunderground v.1.15,2013-03-23 16:49:00,
2013-03-23 09:54:00,60.4,40.1,29.89,WSW,251,0.0,0.0,47,0.00,,,0.00,Wunderground v.1.15,2013-03-23 16:54:00,
2013-03-23 10:00:00,61.3,40.3,29.89,WSW,251,0.0,0.0,46,0.00,,,0.00,Wunderground v.1.15,2013-03-23 17:00:00,
2013-03-23 10:05:00,62.0,40.4,29.89,WSW,252,0.0,3.0,45,0.00,,,0.00,Wunderground v.1.15,2013-03-23 17:05:00,
2013-03-23 10:10:00,63.0,43.0,29.89,WSW,252,0.0,1.0,48,0.00,,,0.00,Wunderground v.1.15,2013-03-23 17:10:00,
2013-03-23 10:15:00,64.0,42.2,29.88,WSW,250,0.0,1.0,45,0.00,,,0.00,Wunderground v.1.15,2013-03-23 17:15:00,
2013-03-23 10:21:00,64.5,42.1,29.89,WSW,251,0.0,0.0,44,0.00,,,0.00,Wunderground v.1.15,2013-03-23 17:21:00,
2013-03-23 10:26:00,65.0,40.7,29.89,WSW,253,0.0,2.0,41,0.00,,,0.00,Wunderground v.1.15,2013-03-23 17:26:00,
2013-03-23 10:32:00,65.4,37.7,29.88,WSW,253,0.0,1.0,36,0.00,,,0.00,Wunderground v.1.15,2013-03-23 17:32:00,
2013-03-23 10:38:00,66.2,36.2,29.88,WSW,254,0.0,3.0,33,0.00,,,0.00,Wunderground v.1.15,2013-03-23 17:38:00,
2013-03-23 10:43:00,66.8,39.7,29.88,WSW,253,0.0,0.0,37,0.00,,,0.00,Wunderground v.1.15,2013-03-23 17:43:00,
2013-03-23 10:48:00,67.5,38.1,29.89,WSW,257,1.0,5.0,34,0.00,,,0.00,Wunderground v.1.15,2013-03-23 17:48:00,
2013-03-23 10:54:00,68.0,40.7,29.89,West,259,2.0,2.0,37,0.00,,,0.00,Wunderground v.1.15,2013-03-23 17:54:00,
2013-03-23 10:59:00,68.4,38.9,29.89,West,264,1.0,3.0,34,0.00,,,0.00,Wunderground v.1.15,2013-03-23 17:59:00,
2013-03-23 11:04:00,68.9,37.0,29.89,West,277,2.0,6.0,31,0.00,,,0.00,Wunderground v.1.15,2013-03-23 18:04:00,
2013-03-23 11:10:00,68.9,37.0,29.90,West,275,2.0,4.0,31,0.00,,,0.00,Wunderground v.1.15,2013-03-23 18:10:00,
2013-03-23 11:15:00,69.5,39.9,29.90,West,272,1.0,6.0,34,0.00,,,0.00,Wunderground v.1.15,2013-03-23 18:15:00,
2013-03-23 11:20:00,69.9,39.5,29.90,WNW,302,2.0,2.0,33,0.00,,,0.00,Wunderground v.1.15,2013-03-23 18:20:00,
2013-03-23 11:25:00,70.2,38.1,29.90,WSW,253,3.0,5.0,31,0.00,,,0.00,Wunderground v.1.15,2013-03-23 18:25:00,
2013-03-23 11:31:00,70.4,40.7,29.90,WNW,294,3.0,5.0,34,0.00,,,0.00,Wunderground v.1.15,2013-03-23 18:31:00,
2013-03-23 11:39:00,70.7,40.9,29.90,West,274,3.0,7.0,34,0.00,,,0.00,Wunderground v.1.15,2013-03-23 18:39:00,
2013-03-23 11:45:00,70.7,40.9,29.90,West,259,4.0,7.0,34,0.00,,,0.00,Wunderground v.1.15,2013-03-23 18:45:00,
2013-03-23 11:50:00,70.6,40.9,29.90,West,272,4.0,10.0,34,0.00,,,0.00,Wunderground v.1.15,2013-03-23 18:50:00,
2013-03-23 11:55:00,70.5,42.2,29.90,WSW,256,5.0,10.0,36,0.00,,,0.00,Wunderground v.1.15,2013-03-23 18:55:00,
2013-03-23 12:00:00,70.9,43.3,29.90,SW,220,5.0,5.0,37,0.00,,,0.00,Wunderground v.1.15,2013-03-23 19:00:00,
2013-03-23 12:06:00,71.5,42.4,29.90,NW,310,3.0,7.0,35,0.00,,,0.00,Wunderground v.1.15,2013-03-23 19:06:00,
2013-03-23 12:12:00,71.6,43.2,29.90,SW,234,4.0,6.0,36,0.00,,,0.00,Wunderground v.1.15,2013-03-23 19:12:00,
2013-03-23 12:17:00,71.8,46.2,29.90,WSW,248,4.0,9.0,40,0.00,,,0.00,Wunderground v.1.15,2013-03-23 19:17:00,
2013-03-23 12:22:00,71.4,46.5,29.90,West,264,5.0,10.0,41,0.00,,,0.00,Wunderground v.1.15,2013-03-23 19:22:00,
2013-03-23 12:27:00,71.6,47.3,29.90,WNW,296,5.0,10.0,42,0.00,,,0.00,Wunderground v.1.15,2013-03-23 19:27:00,
2013-03-23 12:32:00,71.4,48.3,29.90,West,274,6.0,12.0,44,0.00,,,0.00,Wunderground v.1.15,2013-03-23 19:32:00,
2013-03-23 12:37:00,71.3,48.9,29.90,NNE,22,5.0,12.0,45,0.00,,,0.00,Wunderground v.1.15,2013-03-23 19:37:00,
2013-03-23 12:43:00,71.2,49.4,29.90,WNW,300,5.0,13.0,46,0.00,,,0.00,Wunderground v.1.15,2013-03-23 19:43:00,
2013-03-23 12:48:00,71.2,48.2,29.90,WNW,294,5.0,13.0,44,0.00,,,0.00,Wunderground v.1.15,2013-03-23 19:48:00,
2013-03-23 12:53:00,70.7,48.3,29.90,West,272,6.0,9.0,45,0.00,,,0.00,Wunderground v.1.15,2013-03-23 19:53:00,
2013-03-23 12:58:00,70.3,48.5,29.89,WNW,294,7.0,9.0,46,0.00,,,0.00,Wunderground v.1.15,2013-03-23 19:58:00,
2013-03-23 13:03:00,70.5,48.1,29.89,West,277,6.0,7.0,45,0.00,,,0.00,Wunderground v.1.15,2013-03-23 20:03:00,
2013-03-23 13:08:00,70.9,49.1,29.89,SW,227,5.0,7.0,46,0.00,,,0.00,Wunderground v.1.15,2013-03-23 20:08:00,
2013-03-23 13:13:00,71.5,49.6,29.89,NW,313,4.0,5.0,46,0.00,,,0.00,Wunderground v.1.15,2013-03-23 20:13:00,
2013-03-23 13:18:00,71.9,48.8,29.88,WNW,288,5.0,10.0,44,0.00,,,0.00,Wunderground v.1.15,2013-03-23 20:18:00,
2013-03-23 13:23:00,71.6,49.1,29.88,WNW,302,5.0,7.0,45,0.00,,,0.00,Wunderground v.1.15,2013-03-23 20:23:00,
2013-03-23 13:28:00,71.7,49.2,29.88,WNW,302,4.0,7.0,45,0.00,,,0.00,Wunderground v.1.15,2013-03-23 20:28:00,
2013-03-23 13:34:00,72.2,49.1,29.88,WNW,291,4.0,5.0,44,0.00,,,0.00,Wunderground v.1.15,2013-03-23 20:34:00,
2013-03-23 13:39:00,72.6,50.6,29.87,WNW,294,3.0,5.0,46,0.00,,,0.00,Wunderground v.1.15,2013-03-23 20:39:00,
2013-03-23 13:44:00,72.6,51.2,29.87,WNW,284,4.0,6.0,47,0.00,,,0.00,Wunderground v.1.15,2013-03-23 20:44:00,
2013-03-23 13:50:00,73.0,51.6,29.87,West,259,4.0,4.0,47,0.00,,,0.00,Wunderground v.1.15,2013-03-23 20:50:00,
2013-03-23 13:55:00,72.8,50.8,29.87,West,275,5.0,11.0,46,0.00,,,0.00,Wunderground v.1.15,2013-03-23 20:55:00,
2013-03-23 14:01:00,72.0,50.7,29.86,WSW,250,5.0,6.0,47,0.00,,,0.00,Wunderground v.1.15,2013-03-23 21:01:00,
2013-03-23 14:06:00,71.4,50.1,29.86,West,279,5.0,9.0,47,0.00,,,0.00,Wunderground v.1.15,2013-03-23 21:06:00,
2013-03-23 14:11:00,70.7,50.6,29.86,West,276,6.0,8.0,49,0.00,,,0.00,Wunderground v.1.15,2013-03-23 21:11:00,
2013-03-23 14:16:00,71.4,51.8,29.86,WNW,284,4.0,8.0,50,0.00,,,0.00,Wunderground v.1.15,2013-03-23 21:16:00,
2013-03-23 14:21:00,71.9,51.7,29.86,NW,305,3.0,5.0,49,0.00,,,0.00,Wunderground v.1.15,2013-03-23 21:21:00,
2013-03-23 14:27:00,72.4,52.7,29.86,West,277,3.0,10.0,50,0.00,,,0.00,Wunderground v.1.15,2013-03-23 21:27:00,
2013-03-23 14:32:00,71.9,52.8,29.86,WNW,294,4.0,4.0,51,0.00,,,0.00,Wunderground v.1.15,2013-03-23 21:32:00,
2013-03-23 14:37:00,71.6,52.0,29.87,WNW,284,5.0,8.0,50,0.00,,,0.00,Wunderground v.1.15,2013-03-23 21:37:00,
2013-03-23 14:42:00,71.3,52.8,29.86,WSW,248,5.0,5.0,52,0.00,,,0.00,Wunderground v.1.15,2013-03-23 21:42:00,
2013-03-23 14:47:00,71.0,53.0,29.86,WSW,256,5.0,9.0,53,0.00,,,0.00,Wunderground v.1.15,2013-03-23 21:47:00,
2013-03-23 14:52:00,70.9,53.4,29.86,NW,305,6.0,10.0,54,0.00,,,0.00,Wunderground v.1.15,2013-03-23 21:52:00,
2013-03-23 14:57:00,70.4,52.4,29.86,West,276,6.0,10.0,53,0.00,,,0.00,Wunderground v.1.15,2013-03-23 21:57:00,
2013-03-23 15:02:00,70.4,53.5,29.86,WSW,244,4.0,11.0,55,0.00,,,0.00,Wunderground v.1.15,2013-03-23 22:02:00,
2013-03-23 15:07:00,70.2,52.3,29.86,WSW,250,4.0,11.0,53,0.00,,,0.00,Wunderground v.1.15,2013-03-23 22:07:00,
2013-03-23 15:12:00,69.5,52.6,29.86,West,265,6.0,7.0,55,0.00,,,0.00,Wunderground v.1.15,2013-03-23 22:12:00,
2013-03-23 15:18:00,69.6,52.2,29.86,WNW,287,4.0,7.0,54,0.00,,,0.00,Wunderground v.1.15,2013-03-23 22:18:00,
2013-03-23 15:23:00,69.4,52.5,29.86,NW,308,5.0,14.0,55,0.00,,,0.00,Wunderground v.1.15,2013-03-23 22:23:00,
2013-03-23 15:28:00,69.4,53.0,29.86,West,270,6.0,14.0,56,0.00,,,0.00,Wunderground v.1.15,2013-03-23 22:28:00,
2013-03-23 15:33:00,69.3,51.9,29.86,WSW,249,5.0,12.0,54,0.00,,,0.00,Wunderground v.1.15,2013-03-23 22:33:00,
2013-03-23 15:38:00,69.1,51.8,29.85,West,277,6.0,12.0,54,0.00,,,0.00,Wunderground v.1.15,2013-03-23 22:38:00,
2013-03-23 15:43:00,69.2,51.3,29.85,West,275,5.0,6.0,53,0.00,,,0.00,Wunderground v.1.15,2013-03-23 22:43:00,
2013-03-23 15:48:00,69.4,51.5,29.85,West,276,5.0,7.0,53,0.00,,,0.00,Wunderground v.1.15,2013-03-23 22:48:00,
2013-03-23 15:54:00,69.3,50.4,29.85,West,279,5.0,7.0,51,0.00,,,0.00,Wunderground v.1.15,2013-03-23 22:54:00,
2013-03-23 15:59:00,69.4,49.9,29.85,West,269,5.0,5.0,50,0.00,,,0.00,Wunderground v.1.15,2013-03-23 22:59:00,
2013-03-23 16:04:00,69.6,49.6,29.85,WSW,252,5.0,5.0,49,0.00,,,0.00,Wunderground v.1.15,2013-03-23 23:04:00,
2013-03-23 16:10:00,69.3,50.9,29.85,NNW,330,4.0,8.0,52,0.00,,,0.00,Wunderground v.1.15,2013-03-23 23:10:00,
2013-03-23 16:16:00,69.6,50.7,29.85,West,271,4.0,8.0,51,0.00,,,0.00,Wunderground v.1.15,2013-03-23 23:16:00,
2013-03-23 16:22:00,69.6,50.7,29.85,SW,233,5.0,8.0,51,0.00,,,0.00,Wunderground v.1.15,2013-03-23 23:22:00,
2013-03-23 16:28:00,69.0,50.1,29.85,NW,322,5.0,8.0,51,0.00,,,0.00,Wunderground v.1.15,2013-03-23 23:28:00,
2013-03-23 16:33:00,68.9,50.5,29.85,NW,317,4.0,4.0,52,0.00,,,0.00,Wunderground v.1.15,2013-03-23 23:33:00,
2013-03-23 16:38:00,68.7,49.8,29.85,WNW,290,4.0,7.0,51,0.00,,,0.00,Wunderground v.1.15,2013-03-23 23:38:00,
2013-03-23 16:43:00,68.8,49.9,29.85,WNW,296,4.0,9.0,51,0.00,,,0.00,Wunderground v.1.15,2013-03-23 23:43:00,
2013-03-23 16:48:00,69.0,50.6,29.85,WNW,298,4.0,9.0,52,0.00,,,0.00,Wunderground v.1.15,2013-03-23 23:48:00,
2013-03-23 16:53:00,68.9,50.0,29.85,WSW,247,4.0,10.0,51,0.00,,,0.00,Wunderground v.1.15,2013-03-23 23:53:00,
2013-03-23 16:59:00,68.2,49.4,29.85,West,275,4.0,4.0,51,0.00,,,0.00,Wunderground v.1.15,2013-03-23 23:59:00,
2013-03-23 17:05:00,67.7,49.4,29.85,WNW,298,3.0,4.0,52,0.00,,,0.00,Wunderground v.1.15,2013-03-24 00:05:00,
2013-03-23 17:10:00,67.3,50.1,29.85,NW,307,2.0,4.0,54,0.00,,,0.00,Wunderground v.1.15,2013-03-24 00:10:00,
2013-03-23 17:15:00,66.7,49.5,29.85,NW,321,2.0,4.0,54,0.00,,,0.00,Wunderground v.1.15,2013-03-24 00:15:00,
2013-03-23 17:20:00,66.2,50.0,29.86,WNW,286,2.0,4.0,56,0.00,,,0.00,Wunderground v.1.15,2013-03-24 00:20:00,
2013-03-23 17:25:00,65.5,50.3,29.86,WNW,296,3.0,7.0,58,0.00,,,0.00,Wunderground v.1.15,2013-03-24 00:25:00,
2013-03-23 17:31:00,65.0,49.9,29.86,West,270,2.0,2.0,58,0.00,,,0.00,Wunderground v.1.15,2013-03-24 00:31:00,
2013-03-23 17:36:00,64.7,50.5,29.86,NW,307,1.0,2.0,60,0.00,,,0.00,Wunderground v.1.15,2013-03-24 00:36:00,
2013-03-23 17:41:00,64.4,50.7,29.86,WNW,302,1.0,3.0,61,0.00,,,0.00,Wunderground v.1.15,2013-03-24 00:41:00,
2013-03-23 17:46:00,64.1,50.8,29.86,NW,313,2.0,3.0,62,0.00,,,0.00,Wunderground v.1.15,2013-03-24 00:46:00,
2013-03-23 17:52:00,63.9,50.6,29.86,WNW,300,1.0,2.0,62,0.00,,,0.00,Wunderground v.1.15,2013-03-24 00:52:00,
2013-03-23 17:57:00,63.4,50.6,29.86,West,265,1.0,6.0,63,0.00,,,0.00,Wunderground v.1.15,2013-03-24 00:57:00,
2013-03-23 18:02:00,62.9,51.0,29.86,West,275,1.0,2.0,65,0.00,,,0.00,Wunderground v.1.15,2013-03-24 01:02:00,
2013-03-23 18:07:00,62.7,51.6,29.87,West,276,1.0,2.0,67,0.00,,,0.00,Wunderground v.1.15,2013-03-24 01:07:00,
2013-03-23 18:13:00,62.5,51.8,29.87,WNW,288,1.0,2.0,68,0.00,,,0.00,Wunderground v.1.15,2013-03-24 01:13:00,
2013-03-23 18:18:00,62.2,51.9,29.87,WNW,284,0.0,3.0,69,0.00,,,0.00,Wunderground v.1.15,2013-03-24 01:18:00,
2013-03-23 18:24:00,61.8,51.5,29.86,WNW,284,0.0,0.0,69,0.00,,,0.00,Wunderground v.1.15,2013-03-24 01:24:00,
2013-03-23 18:30:00,61.4,51.1,29.86,WNW,284,0.0,0.0,69,0.00,,,0.00,Wunderground v.1.15,2013-03-24 01:30:00,
2013-03-23 18:35:00,61.3,51.4,29.86,WNW,284,0.0,0.0,70,0.00,,,0.00,Wunderground v.1.15,2013-03-24 01:35:00,
2013-03-23 18:40:00,61.1,51.6,29.86,West,276,0.0,0.0,71,0.00,,,0.00,Wunderground v.1.15,2013-03-24 01:40:00,
2013-03-23 18:45:00,60.9,51.4,29.86,West,277,0.0,0.0,71,0.00,,,0.00,Wunderground v.1.15,2013-03-24 01:45:00,
2013-03-23 18:50:00,60.9,51.4,29.86,West,276,0.0,0.0,71,0.00,,,0.00,Wunderground v.1.15,2013-03-24 01:50:00,
2013-03-23 18:56:00,60.8,51.3,29.86,West,276,0.0,0.0,71,0.00,,,0.00,Wunderground v.1.15,2013-03-24 01:56:00,
2013-03-23 19:01:00,60.7,51.2,29.86,West,276,0.0,0.0,71,0.00,,,0.00,Wunderground v.1.15,2013-03-24 02:01:00,
2013-03-23 19:06:00,60.5,51.0,29.86,West,276,0.0,0.0,71,0.00,,,0.00,Wunderground v.1.15,2013-03-24 02:06:00,
2013-03-23 19:11:00,60.4,51.3,29.87,West,277,0.0,0.0,72,0.00,,,0.00,Wunderground v.1.15,2013-03-24 02:11:00,
2013-03-23 19:16:00,60.2,51.5,29.87,West,276,0.0,0.0,73,0.00,,,0.00,Wunderground v.1.15,2013-03-24 02:16:00,
2013-03-23 19:21:00,60.0,51.3,29.87,West,277,0.0,0.0,73,0.00,,,0.00,Wunderground v.1.15,2013-03-24 02:21:00,
2013-03-23 19:26:00,59.5,51.2,29.87,West,276,0.0,0.0,74,0.00,,,0.00,Wunderground v.1.15,2013-03-24 02:26:00,
2013-03-23 19:31:00,59.1,51.2,29.87,West,277,0.0,0.0,75,0.00,,,0.00,Wunderground v.1.15,2013-03-24 02:31:00,
2013-03-23 19:36:00,58.8,50.9,29.86,West,276,0.0,0.0,75,0.00,,,0.00,Wunderground v.1.15,2013-03-24 02:36:00,
2013-03-23 19:41:00,58.4,50.9,29.87,West,277,0.0,0.0,76,0.00,,,0.00,Wunderground v.1.15,2013-03-24 02:41:00,
2013-03-23 19:47:00,58.1,50.9,29.87,West,277,0.0,0.0,77,0.00,,,0.00,Wunderground v.1.15,2013-03-24 02:47:00,
2013-03-23 19:52:00,57.7,50.9,29.87,West,276,0.0,0.0,78,0.00,,,0.00,Wunderground v.1.15,2013-03-24 02:52:00,
2013-03-23 19:57:00,57.3,50.5,29.87,West,277,0.0,0.0,78,0.00,,,0.00,Wunderground v.1.15,2013-03-24 02:57:00,
2013-03-23 20:02:00,56.9,50.5,29.87,West,276,0.0,0.0,79,0.00,,,0.00,Wunderground v.1.15,2013-03-24 03:02:00,
2013-03-23 20:07:00,56.6,50.5,29.88,West,277,0.0,0.0,80,0.00,,,0.00,Wunderground v.1.15,2013-03-24 03:07:00,
2013-03-23 20:12:00,56.3,50.2,29.88,West,277,0.0,0.0,80,0.00,,,0.00,Wunderground v.1.15,2013-03-24 03:12:00,
2013-03-23 20:17:00,55.9,50.2,29.88,West,276,0.0,0.0,81,0.00,,,0.00,Wunderground v.1.15,2013-03-24 03:17:00,
2013-03-23 20:22:00,55.7,50.0,29.88,West,277,0.0,0.0,81,0.00,,,0.00,Wunderground v.1.15,2013-03-24 03:22:00,
2013-03-23 20:28:00,55.4,50.0,29.88,West,277,0.0,0.0,82,0.00,,,0.00,Wunderground v.1.15,2013-03-24 03:28:00,
2013-03-23 20:33:00,55.1,50.0,29.88,West,276,0.0,0.0,83,0.00,,,0.00,Wunderground v.1.15,2013-03-24 03:33:00,
2013-03-23 20:38:00,54.8,49.7,29.88,West,277,0.0,0.0,83,0.00,,,0.00,Wunderground v.1.15,2013-03-24 03:38:00,
2013-03-23 20:43:00,54.6,49.5,29.88,West,277,0.0,0.0,83,0.00,,,0.00,Wunderground v.1.15,2013-03-24 03:43:00,
2013-03-23 20:48:00,54.2,49.1,29.88,West,276,0.0,0.0,83,0.00,,,0.00,Wunderground v.1.15,2013-03-24 03:48:00,
2013-03-23 20:53:00,54.0,49.3,29.88,West,276,0.0,0.0,84,0.00,,,0.00,Wunderground v.1.15,2013-03-24 03:53:00,
2013-03-23 20:59:00,53.8,49.1,29.88,West,276,0.0,0.0,84,0.00,,,0.00,Wunderground v.1.15,2013-03-24 03:59:00,
2013-03-23 21:00:00,53.7,49.0,29.88,West,277,0.0,0.0,84,0.00,,,0.00,Wunderground v.1.15,2013-03-24 04:00:00,
2013-03-23 21:02:00,53.7,49.0,29.89,West,276,0.0,0.0,84,0.00,,,0.00,Wunderground v.1.15,2013-03-24 04:02:00,
2013-03-23 21:04:00,53.6,48.9,29.89,West,276,0.0,0.0,84,0.00,,,0.00,Wunderground v.1.15,2013-03-24 04:04:00,
2013-03-23 21:09:00,53.4,49.0,29.89,West,276,0.0,0.0,85,0.00,,,0.00,Wunderground v.1.15,2013-03-24 04:09:00,
2013-03-23 21:14:00,53.2,48.8,29.89,West,277,0.0,0.0,85,0.00,,,0.00,Wunderground v.1.15,2013-03-24 04:14:00,
2013-03-23 21:19:00,53.0,48.6,29.89,West,277,0.0,0.0,85,0.00,,,0.00,Wunderground v.1.15,2013-03-24 04:19:00,
2013-03-23 21:24:00,52.7,48.3,29.89,West,277,0.0,0.0,85,0.00,,,0.00,Wunderground v.1.15,2013-03-24 04:24:00,
2013-03-23 21:30:00,52.6,48.2,29.89,West,276,0.0,0.0,85,0.00,,,0.00,Wunderground v.1.15,2013-03-24 04:30:00,
2013-03-23 21:35:00,52.3,48.2,29.89,West,276,0.0,0.0,86,0.00,,,0.00,Wunderground v.1.15,2013-03-24 04:35:00,
2013-03-23 21:40:00,52.2,48.1,29.90,West,277,0.0,0.0,86,0.00,,,0.00,Wunderground v.1.15,2013-03-24 04:40:00,
2013-03-23 21:45:00,52.0,47.9,29.90,West,276,0.0,0.0,86,0.00,,,0.00,Wunderground v.1.15,2013-03-24 04:45:00,
2013-03-23 21:50:00,51.8,47.7,29.90,West,277,0.0,0.0,86,0.00,,,0.00,Wunderground v.1.15,2013-03-24 04:50:00,
2013-03-23 21:55:00,51.6,47.5,29.90,West,277,0.0,0.0,86,0.00,,,0.00,Wunderground v.1.15,2013-03-24 04:55:00,
2013-03-23 22:01:00,51.4,47.7,29.90,West,277,0.0,0.0,87,0.00,,,0.00,Wunderground v.1.15,2013-03-24 05:01:00,
2013-03-23 22:06:00,51.2,47.5,29.90,West,277,0.0,0.0,87,0.00,,,0.00,Wunderground v.1.15,2013-03-24 05:06:00,
2013-03-23 22:11:00,51.1,47.4,29.90,West,277,0.0,0.0,87,0.00,,,0.00,Wunderground v.1.15,2013-03-24 05:11:00,
2013-03-23 22:16:00,51.0,47.3,29.90,West,277,0.0,0.0,87,0.00,,,0.00,Wunderground v.1.15,2013-03-24 05:16:00,
2013-03-23 22:22:00,51.1,47.4,29.90,West,277,0.0,0.0,87,0.00,,,0.00,Wunderground v.1.15,2013-03-24 05:22:00,
2013-03-23 22:28:00,51.1,47.4,29.90,West,277,0.0,0.0,87,0.00,,,0.00,Wunderground v.1.15,2013-03-24 05:28:00,
2013-03-23 22:33:00,50.9,46.9,29.90,West,276,0.0,0.0,86,0.00,,,0.00,Wunderground v.1.15,2013-03-24 05:33:00,
2013-03-23 22:38:00,50.8,46.8,29.90,West,277,0.0,0.0,86,0.00,,,0.00,Wunderground v.1.15,2013-03-24 05:38:00,
2013-03-23 22:43:00,50.7,46.4,29.90,West,277,0.0,0.0,85,0.00,,,0.00,Wunderground v.1.15,2013-03-24 05:43:00,
2013-03-23 22:48:00,50.5,46.2,29.90,West,277,0.0,0.0,85,0.00,,,0.00,Wunderground v.1.15,2013-03-24 05:48:00,
2013-03-23 22:54:00,50.3,46.3,29.90,West,277,0.0,0.0,86,0.00,,,0.00,Wunderground v.1.15,2013-03-24 05:54:00,
2013-03-23 22:59:00,50.2,46.2,29.89,West,277,0.0,0.0,86,0.00,,,0.00,Wunderground v.1.15,2013-03-24 05:59:00,
2013-03-23 23:04:00,50.0,46.0,29.89,West,276,0.0,0.0,86,0.00,,,0.00,Wunderground v.1.15,2013-03-24 06:04:00,
2013-03-23 23:09:00,49.9,46.2,29.89,West,277,0.0,0.0,87,0.00,,,0.00,Wunderground v.1.15,2013-03-24 06:09:00,
2013-03-23 23:14:00,49.7,46.0,29.89,West,276,0.0,0.0,87,0.00,,,0.00,Wunderground v.1.15,2013-03-24 06:14:00,
2013-03-23 23:20:00,49.5,45.8,29.90,West,276,0.0,0.0,87,0.00,,,0.00,Wunderground v.1.15,2013-03-24 06:20:00,
2013-03-23 23:25:00,49.4,45.7,29.90,West,277,0.0,0.0,87,0.00,,,0.00,Wunderground v.1.15,2013-03-24 06:25:00,
2013-03-23 23:30:00,49.2,45.5,29.90,West,277,0.0,0.0,87,0.00,,,0.00,Wunderground v.1.15,2013-03-24 06:30:00,
2013-03-23 23:35:00,49.1,45.4,29.89,West,276,0.0,0.0,87,0.00,,,0.00,Wunderground v.1.15,2013-03-24 06:35:00,
2013-03-23 23:41:00,49.0,45.3,29.89,West,277,0.0,0.0,87,0.00,,,0.00,Wunderground v.1.15,2013-03-24 06:41:00,
2013-03-23 23:46:00,48.9,45.2,29.89,West,277,0.0,0.0,87,0.00,,,0.00,Wunderground v.1.15,2013-03-24 06:46:00,
2013-03-23 23:51:00,48.8,45.1,29.89,West,276,0.0,0.0,87,0.00,,,0.00,Wunderground v.1.15,2013-03-24 06:51:00,
2013-03-23 23:56:00,48.7,45.0,29.89,West,276,0.0,0.0,87,0.00,,,0.00,Wunderground v.1.15,2013-03-24 06:56:00,